createdAt,value
2018-08-09T00:00:04.674Z,53.2
2018-08-09T00:00:45.215Z,53.88
2018-08-09T00:01:25.765Z,53.78
2018-08-09T00:02:06.375Z,53.69
2018-08-09T00:02:46.953Z,53.59
2018-08-09T00:03:27.512Z,53.1
2018-08-09T00:04:08.074Z,53.2
2018-08-09T00:04:48.632Z,52.72
2018-08-09T00:05:29.234Z,52.81
2018-08-09T00:06:09.816Z,53.2
2018-08-09T00:06:50.396Z,53.59
2018-08-09T00:07:30.962Z,53.97
2018-08-09T00:08:11.531Z,53.97
2018-08-09T00:08:52.093Z,54.07
2018-08-09T00:09:32.671Z,54.07
2018-08-09T00:10:13.225Z,54.07
2018-08-09T00:10:53.800Z,53.78
2018-08-09T00:11:34.363Z,54.17
2018-08-09T00:12:14.933Z,54.36
2018-08-09T00:12:55.498Z,54.17
2018-08-09T00:13:36.064Z,55.04
2018-08-09T00:14:16.630Z,55.04
2018-08-09T00:14:57.207Z,54.94
2018-08-09T00:15:37.799Z,55.14
2018-08-09T00:16:18.375Z,54.75
2018-08-09T00:16:58.948Z,54.05
2018-08-09T00:17:39.564Z,54.05
2018-08-09T00:18:20.191Z,53.95
2018-08-09T00:19:00.779Z,54.17
2018-08-09T00:19:41.330Z,54.53
2018-08-09T00:20:21.897Z,54.72
2018-08-09T00:21:02.466Z,54.85
2018-08-09T00:21:43.037Z,54.72
2018-08-09T00:22:23.605Z,54.07
2018-08-09T00:23:04.188Z,54.24
2018-08-09T00:23:44.780Z,54.44
2018-08-09T00:24:25.329Z,53.95
2018-08-09T00:25:05.910Z,54.07
2018-08-09T00:25:46.477Z,54.14
2018-08-09T00:26:27.035Z,54.24
2018-08-09T00:27:07.600Z,54.07
2018-08-09T00:27:48.184Z,53.27
2018-08-09T00:28:28.745Z,53.27
2018-08-09T00:29:09.317Z,53.49
2018-08-09T00:29:49.875Z,53.17
2018-08-09T00:30:30.431Z,53.3
2018-08-09T00:31:10.993Z,53.75
2018-08-09T00:31:51.565Z,54.27
2018-08-09T00:32:32.136Z,53.88
2018-08-09T00:33:12.717Z,53.66
2018-08-09T00:33:53.277Z,53.66
2018-08-09T00:34:33.840Z,53.66
2018-08-09T00:35:14.408Z,53.27
2018-08-09T00:35:54.974Z,53.27
2018-08-09T00:36:35.543Z,53.39
2018-08-09T00:37:16.096Z,53.37
2018-08-09T00:37:56.661Z,52.88
2018-08-09T00:38:37.226Z,53.2
2018-08-09T00:39:17.790Z,53.66
2018-08-09T00:39:58.345Z,53.17
2018-08-09T00:40:38.924Z,52.91
2018-08-09T00:41:19.485Z,52.81
2018-08-09T00:42:00.061Z,52.91
2018-08-09T00:42:40.646Z,52.88
2018-08-09T00:43:21.210Z,53.08
2018-08-09T00:44:01.769Z,53.08
2018-08-09T00:44:42.340Z,52.98
2018-08-09T00:45:22.919Z,52.33
2018-08-09T00:46:03.488Z,51.91
2018-08-09T00:46:44.063Z,52.01
2018-08-09T00:47:24.640Z,52.69
2018-08-09T00:48:05.209Z,52.98
2018-08-09T00:48:45.772Z,52.78
2018-08-09T00:49:26.342Z,52.98
2018-08-09T00:50:06.911Z,53.17
2018-08-09T00:50:47.478Z,53.1
2018-08-09T00:51:28.038Z,52.5
2018-08-09T00:52:08.610Z,52.5
2018-08-09T00:52:49.172Z,52.5
2018-08-09T00:53:29.739Z,52.88
2018-08-09T00:54:10.305Z,53.17
2018-08-09T00:54:50.870Z,52.98
2018-08-09T00:55:31.431Z,53.08
2018-08-09T00:56:12.000Z,52.88
2018-08-09T00:56:52.597Z,52.98
2018-08-09T00:57:33.158Z,52.98
2018-08-09T00:58:13.732Z,52.69
2018-08-09T00:58:54.314Z,52.88
2018-08-09T00:59:34.907Z,52.98
2018-08-09T01:00:15.462Z,52.69
2018-08-09T01:00:56.029Z,52.69
2018-08-09T01:01:36.584Z,52.69
2018-08-09T01:02:17.156Z,51.81
2018-08-09T01:02:57.711Z,52.01
2018-08-09T01:03:38.286Z,51.91
2018-08-09T01:04:18.844Z,51.72
2018-08-09T01:04:59.414Z,52.01
2018-08-09T01:05:39.995Z,52.69
2018-08-09T01:06:20.540Z,52.4
2018-08-09T01:07:01.121Z,52.69
2018-08-09T01:07:41.703Z,52.4
2018-08-09T01:08:22.263Z,53.08
2018-08-09T01:09:02.834Z,53.27
2018-08-09T01:09:43.412Z,53.27
2018-08-09T01:10:23.972Z,53.08
2018-08-09T01:11:04.584Z,53.56
2018-08-09T01:11:45.160Z,53.66
2018-08-09T01:12:25.728Z,52.88
2018-08-09T01:13:06.333Z,52.98
2018-08-09T01:13:46.914Z,53.47
2018-08-09T01:14:27.483Z,53.56
2018-08-09T01:15:08.051Z,53.34
2018-08-09T01:15:48.645Z,53.27
2018-08-09T01:16:29.201Z,54.05
2018-08-09T01:17:09.792Z,53.73
2018-08-09T01:17:50.383Z,53.63
2018-08-09T01:18:30.987Z,53.73
2018-08-09T01:19:11.572Z,53.44
2018-08-09T01:19:52.192Z,53.63
2018-08-09T01:20:32.822Z,53.63
2018-08-09T01:21:13.396Z,53.53
2018-08-09T01:21:53.988Z,53.83
2018-08-09T01:22:34.579Z,53.73
2018-08-09T01:23:15.150Z,54.11
2018-08-09T01:23:55.713Z,53.83
2018-08-09T01:24:36.270Z,54.41
2018-08-09T01:25:16.881Z,54.5
2018-08-09T01:25:57.458Z,54.99
2018-08-09T01:26:38.038Z,54.8
2018-08-09T01:27:18.588Z,54.9
2018-08-09T01:27:59.167Z,55.18
2018-08-09T01:28:39.755Z,55.28
2018-08-09T01:29:20.308Z,54.86
2018-08-09T01:30:00.870Z,55.28
2018-08-09T01:30:41.433Z,55.26
2018-08-09T01:31:22.018Z,55.44
2018-08-09T01:32:02.594Z,55.57
2018-08-09T01:32:43.169Z,55.64
2018-08-09T01:33:23.773Z,55.83
2018-08-09T01:34:04.348Z,55.74
2018-08-09T01:34:44.903Z,56.41
2018-08-09T01:35:25.472Z,56.61
2018-08-09T01:36:06.047Z,56.81
2018-08-09T01:36:46.620Z,56.81
2018-08-09T01:37:27.182Z,56.71
2018-08-09T01:38:07.743Z,56.71
2018-08-09T01:38:48.327Z,57
2018-08-09T01:39:28.884Z,57.48
2018-08-09T01:40:09.485Z,57.68
2018-08-09T01:40:50.064Z,57.68
2018-08-09T01:41:30.611Z,57.58
2018-08-09T01:42:11.218Z,57.48
2018-08-09T01:42:51.770Z,57.48
2018-08-09T01:43:32.335Z,57.97
2018-08-09T01:44:12.916Z,58.45
2018-08-09T01:44:53.468Z,58.06
2018-08-09T01:45:34.047Z,58.36
2018-08-09T01:46:14.610Z,58.74
2018-08-09T01:46:55.180Z,59.13
2018-08-09T01:47:35.744Z,59.52
2018-08-09T01:48:16.323Z,60.2
2018-08-09T01:48:56.893Z,60
2018-08-09T01:49:37.468Z,60.49
2018-08-09T01:50:18.036Z,61.04
2018-08-09T01:50:58.623Z,60.94
2018-08-09T01:51:39.181Z,61.52
2018-08-09T01:52:19.775Z,62.2
2018-08-09T01:53:00.345Z,62.4
2018-08-09T01:53:40.917Z,62.4
2018-08-09T01:54:21.487Z,62.3
2018-08-09T01:55:02.037Z,62.79
2018-08-09T01:55:42.601Z,62.79
2018-08-09T01:56:23.142Z,63.17
2018-08-09T01:57:03.718Z,63.56
2018-08-09T01:57:44.279Z,63.46
2018-08-09T01:58:24.837Z,64.14
2018-08-09T01:59:05.447Z,63.75
2018-08-09T01:59:46.056Z,63.62
2018-08-09T02:00:26.623Z,64.01
2018-08-09T02:01:07.209Z,63.85
2018-08-09T02:01:47.799Z,64.01
2018-08-09T02:02:28.364Z,64.11
2018-08-09T02:03:08.923Z,64.43
2018-08-09T02:03:49.483Z,64.53
2018-08-09T02:04:30.042Z,64.59
2018-08-09T02:05:10.611Z,64.5
2018-08-09T02:05:51.185Z,64.92
2018-08-09T02:06:31.739Z,64.79
2018-08-09T02:07:12.325Z,64.89
2018-08-09T02:07:52.917Z,65.17
2018-08-09T02:08:33.453Z,64.98
2018-08-09T02:09:14.020Z,64.98
2018-08-09T02:09:54.596Z,65.27
2018-08-09T02:10:35.156Z,65.17
2018-08-09T02:11:15.729Z,65.08
2018-08-09T02:11:56.280Z,64.98
2018-08-09T02:12:36.851Z,65.08
2018-08-09T02:13:17.415Z,65.17
2018-08-09T02:13:57.996Z,65.66
2018-08-09T02:14:38.594Z,65.66
2018-08-09T02:15:19.170Z,65.66
2018-08-09T02:15:59.738Z,66.14
2018-08-09T02:16:40.303Z,65.92
2018-08-09T02:17:20.862Z,66.63
2018-08-09T02:18:01.431Z,66.69
2018-08-09T02:18:42.009Z,66.72
2018-08-09T02:19:22.591Z,66.98
2018-08-09T02:20:03.167Z,66.92
2018-08-09T02:20:43.736Z,66.98
2018-08-09T02:21:24.298Z,67.11
2018-08-09T02:22:04.868Z,67.18
2018-08-09T02:22:45.438Z,66.98
2018-08-09T02:23:25.995Z,66.82
2018-08-09T02:24:06.561Z,66.6
2018-08-09T02:24:47.110Z,67.37
2018-08-09T02:25:27.675Z,67.18
2018-08-09T02:26:08.234Z,67.56
2018-08-09T02:26:48.795Z,67.27
2018-08-09T02:27:29.358Z,67.27
2018-08-09T02:28:09.939Z,67.76
2018-08-09T02:28:50.516Z,68.05
2018-08-09T02:29:31.086Z,68.15
2018-08-09T02:30:11.641Z,68.05
2018-08-09T02:30:52.214Z,68.43
2018-08-09T02:31:32.797Z,68.43
2018-08-09T02:32:13.355Z,68.82
2018-08-09T02:32:53.961Z,68.43
2018-08-09T02:33:34.515Z,68.15
2018-08-09T02:34:15.092Z,68.73
2018-08-09T02:34:55.646Z,68.73
2018-08-09T02:35:36.263Z,68.91
2018-08-09T02:36:16.809Z,69.01
2018-08-09T02:36:57.381Z,68.82
2018-08-09T02:37:37.953Z,68.73
2018-08-09T02:38:18.513Z,68.82
2018-08-09T02:38:59.077Z,68.91
2018-08-09T02:39:39.626Z,69.01
2018-08-09T02:40:20.206Z,68.91
2018-08-09T02:41:00.778Z,69.01
2018-08-09T02:41:41.364Z,69.5
2018-08-09T02:42:21.911Z,69.69
2018-08-09T02:43:02.495Z,69.31
2018-08-09T02:43:43.089Z,69.27
2018-08-09T02:44:23.657Z,69.56
2018-08-09T02:45:04.221Z,69.85
2018-08-09T02:45:44.883Z,69.89
2018-08-09T02:46:25.459Z,69.79
2018-08-09T02:47:06.049Z,69.89
2018-08-09T02:47:46.649Z,69.75
2018-08-09T02:48:27.219Z,69.66
2018-08-09T02:49:07.823Z,69.79
2018-08-09T02:49:48.390Z,69.98
2018-08-09T02:50:28.980Z,69.98
2018-08-09T02:51:09.545Z,69.98
2018-08-09T02:51:50.115Z,69.89
2018-08-09T02:52:30.709Z,69.89
2018-08-09T02:53:11.289Z,69.56
2018-08-09T02:53:51.900Z,69.85
2018-08-09T02:54:32.464Z,69.89
2018-08-09T02:55:13.070Z,70.56
2018-08-09T02:55:53.635Z,70.82
2018-08-09T02:56:34.200Z,71.01
2018-08-09T02:57:14.773Z,70.47
2018-08-09T02:57:55.336Z,71.01
2018-08-09T02:58:35.904Z,70.86
2018-08-09T02:59:16.485Z,70.72
2018-08-09T02:59:57.054Z,70.72
2018-08-09T03:00:37.623Z,71.3
2018-08-09T03:01:18.187Z,71.11
2018-08-09T03:01:58.739Z,71.2
2018-08-09T03:02:39.313Z,71.3
2018-08-09T03:03:19.861Z,71.2
2018-08-09T03:04:00.425Z,71.59
2018-08-09T03:04:40.989Z,71.59
2018-08-09T03:05:21.568Z,71.5
2018-08-09T03:06:02.127Z,71.78
2018-08-09T03:06:42.686Z,71.11
2018-08-09T03:07:23.241Z,71.78
2018-08-09T03:08:03.814Z,71.78
2018-08-09T03:08:44.424Z,71.78
2018-08-09T03:09:24.990Z,71.78
2018-08-09T03:10:05.552Z,72.17
2018-08-09T03:10:46.110Z,71.98
2018-08-09T03:11:26.673Z,71.98
2018-08-09T03:12:07.261Z,72.17
2018-08-09T03:12:47.843Z,72.08
2018-08-09T03:13:28.418Z,72.36
2018-08-09T03:14:08.974Z,72.56
2018-08-09T03:14:49.535Z,72.56
2018-08-09T03:15:30.096Z,72.46
2018-08-09T03:16:10.656Z,72.56
2018-08-09T03:16:51.224Z,72.85
2018-08-09T03:17:31.793Z,72.85
2018-08-09T03:18:12.366Z,72.56
2018-08-09T03:18:52.940Z,72.56
2018-08-09T03:19:33.554Z,72.66
2018-08-09T03:20:14.137Z,72.42
2018-08-09T03:20:54.678Z,72.85
2018-08-09T03:21:35.260Z,73.14
2018-08-09T03:22:15.818Z,73.04
2018-08-09T03:22:56.379Z,73.14
2018-08-09T03:23:36.940Z,72.95
2018-08-09T03:24:17.583Z,73.33
2018-08-09T03:24:58.123Z,73.24
2018-08-09T03:25:38.702Z,73.53
2018-08-09T03:26:19.264Z,73.3
2018-08-09T03:26:59.822Z,73.49
2018-08-09T03:27:40.387Z,73.3
2018-08-09T03:28:20.946Z,73.3
2018-08-09T03:29:01.509Z,73.68
2018-08-09T03:29:42.081Z,73.3
2018-08-09T03:30:22.670Z,73.68
2018-08-09T03:31:03.231Z,73.68
2018-08-09T03:31:43.813Z,73.39
2018-08-09T03:32:24.401Z,73.68
2018-08-09T03:33:04.993Z,73.97
2018-08-09T03:33:45.533Z,73.59
2018-08-09T03:34:26.093Z,73.68
2018-08-09T03:35:06.662Z,73.97
2018-08-09T03:35:47.225Z,73.88
2018-08-09T03:36:27.784Z,73.78
2018-08-09T03:37:08.351Z,73.97
2018-08-09T03:37:48.938Z,73.88
2018-08-09T03:38:29.520Z,73.97
2018-08-09T03:39:10.106Z,73.78
2018-08-09T03:39:50.668Z,73.88
2018-08-09T03:40:31.233Z,74.17
2018-08-09T03:41:11.809Z,73.68
2018-08-09T03:41:52.370Z,73.88
2018-08-09T03:42:32.941Z,73.97
2018-08-09T03:43:13.631Z,74.17
2018-08-09T03:43:54.212Z,74.17
2018-08-09T03:44:34.789Z,74.07
2018-08-09T03:45:15.375Z,73.88
2018-08-09T03:45:55.938Z,74.27
2018-08-09T03:46:36.506Z,73.97
2018-08-09T03:47:17.065Z,73.88
2018-08-09T03:47:57.625Z,73.78
2018-08-09T03:48:38.188Z,74.07
2018-08-09T03:49:18.764Z,73.39
2018-08-09T03:49:59.326Z,73.88
2018-08-09T03:50:39.900Z,74.36
2018-08-09T03:51:20.465Z,73.49
2018-08-09T03:52:01.015Z,73.88
2018-08-09T03:52:41.596Z,74.07
2018-08-09T03:53:22.140Z,73.68
2018-08-09T03:54:02.714Z,73.97
2018-08-09T03:54:43.271Z,73.59
2018-08-09T03:55:23.870Z,73.97
2018-08-09T03:56:04.443Z,73.59
2018-08-09T03:56:45.014Z,74.07
2018-08-09T03:57:25.579Z,73.68
2018-08-09T03:58:06.139Z,73.88
2018-08-09T03:58:46.697Z,73.78
2018-08-09T03:59:27.277Z,73.49
2018-08-09T04:00:07.832Z,73.88
2018-08-09T04:00:48.433Z,74.07
2018-08-09T04:01:29.014Z,74.17
2018-08-09T04:02:09.588Z,74.17
2018-08-09T04:02:50.219Z,74.46
2018-08-09T04:03:30.783Z,74.65
2018-08-09T04:04:11.376Z,74.65
2018-08-09T04:04:51.929Z,74.17
2018-08-09T04:05:32.497Z,74.55
2018-08-09T04:06:13.073Z,74.17
2018-08-09T04:06:53.635Z,74.07
2018-08-09T04:07:34.204Z,74.17
2018-08-09T04:08:14.779Z,74.27
2018-08-09T04:08:55.334Z,74.17
2018-08-09T04:09:35.914Z,74.36
2018-08-09T04:10:16.476Z,74.55
2018-08-09T04:10:57.035Z,74.27
2018-08-09T04:11:37.643Z,74.27
2018-08-09T04:12:18.226Z,74.27
2018-08-09T04:12:58.780Z,74.27
2018-08-09T04:13:39.344Z,74.17
2018-08-09T04:14:19.909Z,74.17
2018-08-09T04:15:00.478Z,74.75
2018-08-09T04:15:41.057Z,74.27
2018-08-09T04:16:21.625Z,74.27
2018-08-09T04:17:02.211Z,74.17
2018-08-09T04:17:42.763Z,74.27
2018-08-09T04:18:23.326Z,74.07
2018-08-09T04:19:03.934Z,74.65
2018-08-09T04:19:44.512Z,74.36
2018-08-09T04:20:25.105Z,74.36
2018-08-09T04:21:05.626Z,74.46
2018-08-09T04:21:46.188Z,74.46
2018-08-09T04:22:26.752Z,74.75
2018-08-09T04:23:07.309Z,74.85
2018-08-09T04:23:47.905Z,74.65
2018-08-09T04:24:28.470Z,75.13
2018-08-09T04:25:09.056Z,75
2018-08-09T04:25:49.634Z,75.23
2018-08-09T04:26:30.239Z,75.13
2018-08-09T04:27:10.815Z,75.13
2018-08-09T04:27:51.578Z,74.85
2018-08-09T04:28:32.167Z,74.94
2018-08-09T04:29:12.737Z,74.94
2018-08-09T04:29:53.281Z,75.13
2018-08-09T04:30:33.845Z,75.13
2018-08-09T04:31:14.414Z,75.13
2018-08-09T04:31:54.975Z,74.55
2018-08-09T04:32:35.542Z,74.55
2018-08-09T04:33:16.117Z,74.27
2018-08-09T04:33:56.682Z,74.27
2018-08-09T04:34:37.287Z,74.17
2018-08-09T04:35:17.904Z,74.65
2018-08-09T04:35:58.482Z,74.17
2018-08-09T04:36:39.051Z,73.88
2018-08-09T04:37:19.638Z,73.59
2018-08-09T04:38:00.332Z,73.88
2018-08-09T04:38:40.846Z,73.39
2018-08-09T04:39:21.403Z,73.88
2018-08-09T04:40:01.966Z,73.88
2018-08-09T04:40:42.527Z,73.97
2018-08-09T04:41:23.089Z,73.97
2018-08-09T04:42:03.672Z,73.88
2018-08-09T04:42:44.239Z,74.07
2018-08-09T04:43:24.811Z,73.78
2018-08-09T04:44:05.374Z,73.78
2018-08-09T04:44:45.933Z,73.78
2018-08-09T04:45:26.510Z,73.97
2018-08-09T04:46:07.399Z,73.59
2018-08-09T04:46:47.922Z,73.74
2018-08-09T04:47:28.511Z,73.78
2018-08-09T04:48:09.084Z,73.88
2018-08-09T04:48:49.653Z,74.07
2018-08-09T04:49:30.201Z,73.65
2018-08-09T04:50:10.760Z,73.65
2018-08-09T04:50:51.330Z,73.49
2018-08-09T04:51:31.930Z,73.97
2018-08-09T04:52:12.507Z,73.59
2018-08-09T04:52:53.063Z,73.74
2018-08-09T04:53:33.625Z,72.97
2018-08-09T04:54:14.192Z,73.74
2018-08-09T04:54:54.752Z,73.84
2018-08-09T04:55:35.334Z,73.46
2018-08-09T04:56:15.919Z,74.04
2018-08-09T04:56:56.547Z,73.78
2018-08-09T04:57:37.116Z,73.74
2018-08-09T04:58:17.702Z,73.74
2018-08-09T04:58:58.245Z,73.65
2018-08-09T04:59:38.823Z,73.65
2018-08-09T05:00:19.403Z,73.55
2018-08-09T05:00:59.989Z,73.84
2018-08-09T05:01:40.562Z,73.84
2018-08-09T05:02:21.136Z,73.55
2018-08-09T05:03:01.699Z,73.26
2018-08-09T05:03:42.300Z,72.39
2018-08-09T05:04:22.882Z,71.91
2018-08-09T05:05:03.485Z,71.52
2018-08-09T05:05:44.052Z,71.81
2018-08-09T05:06:24.613Z,72
2018-08-09T05:07:05.207Z,71.33
2018-08-09T05:07:45.763Z,71.14
2018-08-09T05:08:26.386Z,71.14
2018-08-09T05:09:06.982Z,71.14
2018-08-09T05:09:47.564Z,71.14
2018-08-09T05:10:28.131Z,71.14
2018-08-09T05:11:08.692Z,70.65
2018-08-09T05:11:49.255Z,71.17
2018-08-09T05:12:29.816Z,71.26
2018-08-09T05:13:10.375Z,71.17
2018-08-09T05:13:50.947Z,70.59
2018-08-09T05:14:31.518Z,70.3
2018-08-09T05:15:12.094Z,70.5
2018-08-09T05:15:52.701Z,70.68
2018-08-09T05:16:33.212Z,70.59
2018-08-09T05:17:13.781Z,71.08
2018-08-09T05:17:54.347Z,70.78
2018-08-09T05:18:34.903Z,70.5
2018-08-09T05:19:15.470Z,70.3
2018-08-09T05:19:56.046Z,70.4
2018-08-09T05:20:36.617Z,69.82
2018-08-09T05:21:17.234Z,69.43
2018-08-09T05:21:57.782Z,69.62
2018-08-09T05:22:38.353Z,69.14
2018-08-09T05:23:18.911Z,69.14
2018-08-09T05:23:59.742Z,68.85
2018-08-09T05:24:40.298Z,68.75
2018-08-09T05:25:20.863Z,68.85
2018-08-09T05:26:01.426Z,69.43
2018-08-09T05:26:41.996Z,68.95
2018-08-09T05:27:22.565Z,69.4
2018-08-09T05:28:03.133Z,69.62
2018-08-09T05:28:43.711Z,69.82
2018-08-09T05:29:24.272Z,69.68
2018-08-09T05:30:04.875Z,69.33
2018-08-09T05:30:45.428Z,69.04
2018-08-09T05:31:25.991Z,68.82
2018-08-09T05:32:06.553Z,69.4
2018-08-09T05:32:47.118Z,69.53
2018-08-09T05:33:27.683Z,69.14
2018-08-09T05:34:08.302Z,68.85
2018-08-09T05:34:48.849Z,68.75
2018-08-09T05:35:29.421Z,69.33
2018-08-09T05:36:09.976Z,69.53
2018-08-09T05:36:50.545Z,69.04
2018-08-09T05:37:31.112Z,69.33
2018-08-09T05:38:11.687Z,69.53
2018-08-09T05:38:52.284Z,69.53
2018-08-09T05:39:32.849Z,69.53
2018-08-09T05:40:13.420Z,68.75
2018-08-09T05:40:53.996Z,68.66
2018-08-09T05:41:34.548Z,68.56
2018-08-09T05:42:15.112Z,68.37
2018-08-09T05:42:55.682Z,67.88
2018-08-09T05:43:36.283Z,68.08
2018-08-09T05:44:16.858Z,68.08
2018-08-09T05:44:57.419Z,67.59
2018-08-09T05:45:37.994Z,67.59
2018-08-09T05:46:18.583Z,67.88
2018-08-09T05:46:59.150Z,67.14
2018-08-09T05:47:39.710Z,67.24
2018-08-09T05:48:20.295Z,67.24
2018-08-09T05:49:00.855Z,66.75
2018-08-09T05:49:41.433Z,67.05
2018-08-09T05:50:22.009Z,67.33
2018-08-09T05:51:02.613Z,67.53
2018-08-09T05:51:43.203Z,67.14
2018-08-09T05:52:23.799Z,66.37
2018-08-09T05:53:04.390Z,65.88
2018-08-09T05:53:45.003Z,65.98
2018-08-09T05:54:25.598Z,66.17
2018-08-09T05:55:06.164Z,66.02
2018-08-09T05:55:46.786Z,65.34
2018-08-09T05:56:27.382Z,64.85
2018-08-09T05:57:07.946Z,65.14
2018-08-09T05:57:48.525Z,64.66
2018-08-09T05:58:29.157Z,64.95
2018-08-09T05:59:09.730Z,64.47
2018-08-09T05:59:50.309Z,64.66
2018-08-09T06:00:30.878Z,64.69
2018-08-09T06:01:11.450Z,64.01
2018-08-09T06:01:52.058Z,64.01
2018-08-09T06:02:32.633Z,63.82
2018-08-09T06:03:13.199Z,64.11
2018-08-09T06:03:53.820Z,62.85
2018-08-09T06:04:34.403Z,62.95
2018-08-09T06:05:14.986Z,62.75
2018-08-09T06:05:55.532Z,63.24
2018-08-09T06:06:36.112Z,63.24
2018-08-09T06:07:16.689Z,63.24
2018-08-09T06:07:57.258Z,62.88
2018-08-09T06:08:37.829Z,63.07
2018-08-09T06:09:18.415Z,63.07
2018-08-09T06:09:58.989Z,63.27
2018-08-09T06:10:39.549Z,62.98
2018-08-09T06:11:20.134Z,63.07
2018-08-09T06:12:00.700Z,62.49
2018-08-09T06:12:41.277Z,62.3
2018-08-09T06:13:21.892Z,62.2
2018-08-09T06:14:02.434Z,61.85
2018-08-09T06:14:43.002Z,61.17
2018-08-09T06:15:23.566Z,60.39
2018-08-09T06:16:04.130Z,60.58
2018-08-09T06:16:44.705Z,60.39
2018-08-09T06:17:25.314Z,59.81
2018-08-09T06:18:05.854Z,60.39
2018-08-09T06:18:46.476Z,60
2018-08-09T06:19:27.000Z,59.91
2018-08-09T06:20:07.577Z,59.13
2018-08-09T06:20:48.140Z,58.94
2018-08-09T06:21:28.726Z,59.06
2018-08-09T06:22:09.299Z,59.16
2018-08-09T06:22:49.866Z,58.55
2018-08-09T06:23:30.427Z,58.39
2018-08-09T06:24:11.052Z,58.97
2018-08-09T06:24:51.635Z,59.16
2018-08-09T06:25:32.180Z,58.67
2018-08-09T06:26:12.771Z,58.67
2018-08-09T06:26:53.343Z,57.61
2018-08-09T06:27:33.946Z,57.8
2018-08-09T06:28:14.539Z,58.03
2018-08-09T06:28:55.142Z,57.83
2018-08-09T06:29:35.731Z,57.34
2018-08-09T06:30:16.314Z,57.34
2018-08-09T06:30:56.899Z,57.44
2018-08-09T06:31:37.502Z,57.06
2018-08-09T06:32:18.058Z,57.06
2018-08-09T06:32:58.637Z,57.06
2018-08-09T06:33:39.209Z,57.57
2018-08-09T06:34:19.781Z,56.89
2018-08-09T06:35:00.385Z,54.94
2018-08-09T06:35:40.987Z,55.43
2018-08-09T06:36:21.575Z,55.04
2018-08-09T06:37:02.159Z,55.63
2018-08-09T06:37:42.737Z,54.94
2018-08-09T06:38:23.307Z,54.56
2018-08-09T06:39:03.958Z,55.43
2018-08-09T06:39:44.540Z,55.53
2018-08-09T06:40:25.117Z,54.94
2018-08-09T06:41:05.685Z,55.04
2018-08-09T06:41:46.273Z,55.14
2018-08-09T06:42:26.838Z,55.73
2018-08-09T06:43:07.423Z,55.36
2018-08-09T06:43:48.001Z,55.46
2018-08-09T06:44:28.644Z,55.75
2018-08-09T06:45:09.271Z,55.55
2018-08-09T06:45:49.860Z,55.85
2018-08-09T06:46:30.446Z,55.55
2018-08-09T06:47:11.025Z,55.68
2018-08-09T06:47:51.597Z,54.03
2018-08-09T06:48:32.189Z,53.54
2018-08-09T06:49:12.761Z,54.03
2018-08-09T06:49:53.326Z,53.93
2018-08-09T06:50:33.894Z,53.83
2018-08-09T06:51:14.463Z,53.77
2018-08-09T06:51:55.035Z,52.79
2018-08-09T06:52:35.596Z,53.38
2018-08-09T06:53:16.165Z,53.86
2018-08-09T06:53:56.739Z,52.89
2018-08-09T06:54:37.315Z,53.18
2018-08-09T06:55:17.913Z,53.57
2018-08-09T06:55:58.496Z,53.18
2018-08-09T06:56:39.084Z,53.67
2018-08-09T06:57:19.663Z,53.86
2018-08-09T06:58:00.245Z,53.01
2018-08-09T06:58:40.858Z,52.92
2018-08-09T06:59:21.464Z,52.82
2018-08-09T07:00:02.036Z,52.53
2018-08-09T07:00:42.613Z,52.62
2018-08-09T07:01:23.202Z,52.92
2018-08-09T07:02:03.815Z,52.23
2018-08-09T07:02:44.364Z,51.94
2018-08-09T07:03:24.966Z,52.14
2018-08-09T07:04:05.529Z,52.23
2018-08-09T07:04:46.136Z,51.67
2018-08-09T07:05:26.718Z,51.87
2018-08-09T07:06:07.288Z,51.45
2018-08-09T07:06:47.862Z,51.97
2018-08-09T07:07:28.437Z,51.87
2018-08-09T07:08:09.006Z,50.6
2018-08-09T07:08:49.634Z,50.12
2018-08-09T07:09:30.180Z,50.6
2018-08-09T07:10:10.834Z,51.65
2018-08-09T07:10:51.427Z,51.26
2018-08-09T07:11:31.999Z,51.19
2018-08-09T07:12:12.593Z,51.19
2018-08-09T07:12:53.327Z,51.17
2018-08-09T07:13:33.760Z,51.77
2018-08-09T07:14:14.343Z,52.06
2018-08-09T07:14:54.919Z,52.06
2018-08-09T07:15:35.505Z,51.77
2018-08-09T07:16:16.114Z,51.39
2018-08-09T07:16:56.684Z,51.87
2018-08-09T07:17:37.272Z,50.99
2018-08-09T07:18:17.857Z,50.7
2018-08-09T07:18:58.423Z,50.8
2018-08-09T07:19:38.991Z,50.8
2018-08-09T07:20:19.638Z,50.7
2018-08-09T07:21:00.163Z,51.09
2018-08-09T07:21:40.725Z,51.87
2018-08-09T07:22:21.305Z,51.09
2018-08-09T07:23:01.879Z,51.17
2018-08-09T07:23:42.459Z,51.75
2018-08-09T07:24:23.042Z,52.75
2018-08-09T07:25:03.689Z,52.65
2018-08-09T07:25:44.239Z,52.62
2018-08-09T07:26:24.866Z,52.65
2018-08-09T07:27:05.434Z,52.75
2018-08-09T07:27:46.003Z,52.26
2018-08-09T07:28:26.573Z,51.67
2018-08-09T07:29:07.154Z,52.36
2018-08-09T07:29:47.722Z,52.65
2018-08-09T07:30:28.303Z,51.9
2018-08-09T07:31:08.876Z,51.12
2018-08-09T07:31:49.450Z,51.48
2018-08-09T07:32:30.043Z,51.19
2018-08-09T07:33:10.615Z,51.09
2018-08-09T07:33:51.196Z,51.77
2018-08-09T07:34:31.746Z,52.75
2018-08-09T07:35:12.314Z,52.84
2018-08-09T07:35:52.929Z,52.87
2018-08-09T07:36:33.546Z,52.77
2018-08-09T07:37:14.163Z,51.31
2018-08-09T07:37:54.703Z,51.51
2018-08-09T07:38:35.277Z,52.09
2018-08-09T07:39:15.882Z,51.7
2018-08-09T07:39:56.453Z,52.38
2018-08-09T07:40:37.086Z,52.58
2018-08-09T07:41:17.918Z,52.87
2018-08-09T07:41:58.676Z,52.31
2018-08-09T07:42:39.323Z,51.73
2018-08-09T07:43:20.395Z,51.82
2018-08-09T07:44:01.178Z,51.73
2018-08-09T07:44:41.776Z,51.43
2018-08-09T07:45:22.353Z,52.22
2018-08-09T07:46:02.930Z,51.24
2018-08-09T07:46:43.506Z,51.43
2018-08-09T07:47:24.103Z,51.14
2018-08-09T07:48:05.321Z,51.53
2018-08-09T07:48:46.311Z,50.56
2018-08-09T07:49:27.201Z,51.14
2018-08-09T07:50:08.089Z,51.34
2018-08-09T07:50:48.900Z,51.53
2018-08-09T07:51:29.678Z,51.14
2018-08-09T07:52:10.439Z,51.46
2018-08-09T07:52:51.119Z,52.14
2018-08-09T07:53:31.686Z,51.75
2018-08-09T07:54:12.312Z,51.07
2018-08-09T07:54:52.857Z,51.95
2018-08-09T07:55:34.038Z,51.56
2018-08-09T07:56:14.613Z,51.56
2018-08-09T07:56:55.251Z,51.17
2018-08-09T07:57:35.756Z,51.56
2018-08-09T07:58:16.328Z,51.56
2018-08-09T07:58:56.917Z,51.85
2018-08-09T07:59:37.487Z,51.26
2018-08-09T08:00:18.065Z,51.17
2018-08-09T08:00:58.654Z,51.46
2018-08-09T08:01:39.232Z,51.85
2018-08-09T08:02:19.843Z,51.24
2018-08-09T08:03:00.415Z,52.24
2018-08-09T08:03:41.002Z,51.65
2018-08-09T08:04:21.587Z,51.43
2018-08-09T08:05:02.220Z,51.95
2018-08-09T08:05:42.808Z,52.6
2018-08-09T08:06:23.367Z,53.02
2018-08-09T08:07:03.973Z,53.11
2018-08-09T08:07:44.548Z,52.34
2018-08-09T08:08:25.151Z,52.22
2018-08-09T08:09:05.680Z,52.14
2018-08-09T08:09:46.310Z,52.24
2018-08-09T08:10:26.886Z,52.12
2018-08-09T08:11:07.460Z,52.12
2018-08-09T08:11:48.051Z,51.92
2018-08-09T08:12:28.640Z,52.99
2018-08-09T08:13:09.250Z,52.99
2018-08-09T08:13:49.834Z,52.31
2018-08-09T08:14:30.440Z,52.99
2018-08-09T08:15:11.072Z,53.19
2018-08-09T08:15:51.571Z,53.38
2018-08-09T08:16:32.169Z,53.28
2018-08-09T08:17:12.759Z,54.33
2018-08-09T08:17:53.326Z,54.36
2018-08-09T08:18:33.902Z,54.26
2018-08-09T08:19:14.507Z,54.26
2018-08-09T08:19:55.077Z,53.87
2018-08-09T08:20:35.697Z,54.36
2018-08-09T08:21:16.223Z,53.87
2018-08-09T08:21:56.802Z,53.77
2018-08-09T08:22:37.369Z,53.8
2018-08-09T08:23:18.240Z,53.21
2018-08-09T08:23:59.118Z,52.34
2018-08-09T08:24:39.842Z,52.92
2018-08-09T08:25:20.437Z,52.83
2018-08-09T08:26:01.009Z,53.8
2018-08-09T08:26:41.624Z,53.21
2018-08-09T08:27:22.179Z,52.92
2018-08-09T08:28:02.753Z,52.73
2018-08-09T08:28:43.642Z,52.92
2018-08-09T08:29:24.450Z,53.11
2018-08-09T08:30:04.924Z,53.11
2018-08-09T08:30:45.674Z,53.31
2018-08-09T08:31:26.717Z,53.11
2018-08-09T08:32:08.695Z,53.02
2018-08-09T08:32:49.450Z,53.31
2018-08-09T08:33:30.283Z,53.41
2018-08-09T08:34:10.891Z,53.6
2018-08-09T08:34:51.492Z,53.21
2018-08-09T08:35:32.192Z,53.11
2018-08-09T08:36:12.794Z,53.41
2018-08-09T08:36:53.369Z,53.09
2018-08-09T08:37:34.268Z,53.28
2018-08-09T08:38:14.840Z,53.09
2018-08-09T08:38:55.558Z,53.77
2018-08-09T08:39:36.557Z,54.26
2018-08-09T08:40:17.125Z,54.75
2018-08-09T08:40:57.791Z,54.75
2018-08-09T08:41:38.382Z,54.16
2018-08-09T08:42:18.917Z,54.75
2018-08-09T08:42:59.486Z,54.13
2018-08-09T08:43:40.262Z,55.11